Bandar Lengeh, Bandar Lengeh Airport (OIBL)

NameBandar Lengeh Airport
CityBandar Lengeh
CountryIran (Islamic Republic of)
ICAOOIBL
IATABDH
Altitude20 m
CoordinatesGoogle Map
Live Air TrafficLiveATC.net
METAROIBL 231800Z 25014KT CAVOK 25/17 Q1010
2019-04-23 18:00:00 Wind: West-Southwest (250°) 7.2 m/s - Visibility: > 10000 m - Weather: CAVOK - Temperature: 25 °C - Dew point: 17 °C - Humidity: 61.2% - Pressure: 1010 hPa
Statistics

The table below shows the detailed information of all flights to/from Bandar Lengeh, Bandar Lengeh Airport (OIBL).